createdAt,value
2019-02-22T00:02:25.294Z,15.20
2019-02-22T00:04:55.258Z,12.03
2019-02-22T00:07:26.301Z,17.23
2019-02-22T00:09:56.353Z,18.30
2019-02-22T00:12:26.434Z,14.67
2019-02-22T00:14:56.408Z,19.33
2019-02-22T00:17:26.395Z,14.63
2019-02-22T00:19:56.554Z,14.50
2019-02-22T00:22:26.641Z,15.87
2019-02-22T00:24:56.656Z,13.57
2019-02-22T00:27:26.661Z,15.53
2019-02-22T00:29:56.724Z,16.77
2019-02-22T00:32:26.712Z,15.97
2019-02-22T00:34:56.777Z,16.70
2019-02-22T00:37:27.225Z,13.40
2019-02-22T00:39:57.331Z,14.90
2019-02-22T00:42:27.316Z,21.07
2019-02-22T00:44:57.309Z,19.10
2019-02-22T00:47:27.349Z,19.20
2019-02-22T00:49:57.310Z,17.77
2019-02-22T00:52:27.324Z,15.00
2019-02-22T00:54:57.399Z,15.70
2019-02-22T00:57:29.724Z,14.43
2019-02-22T00:59:59.720Z,14.37
2019-02-22T01:02:29.688Z,19.67
2019-02-22T01:04:59.749Z,18.17
2019-02-22T01:07:29.720Z,13.97
2019-02-22T01:09:59.715Z,13.90
2019-02-22T01:12:29.776Z,19.57
2019-02-22T01:14:59.758Z,22.03
2019-02-22T01:17:29.813Z,17.73
2019-02-22T01:19:59.796Z,17.47
2019-02-22T01:22:29.748Z,14.30
2019-02-22T01:24:59.822Z,18.37
2019-02-22T01:27:29.806Z,17.13
2019-02-22T01:29:59.782Z,15.83
2019-02-22T01:32:29.863Z,18.67
2019-02-22T01:34:59.882Z,18.50
2019-02-22T01:37:29.866Z,18.40
2019-02-22T01:39:59.946Z,15.70
2019-02-22T01:42:29.942Z,14.80
2019-02-22T01:44:59.891Z,16.20
2019-02-22T01:47:29.885Z,16.50
2019-02-22T01:49:59.940Z,19.50
2019-02-22T01:52:30.004Z,19.07
2019-02-22T01:54:59.986Z,16.47
2019-02-22T01:57:30.087Z,16.47
2019-02-22T02:00:00.039Z,14.60
2019-02-22T02:02:30.234Z,20.10
2019-02-22T02:05:00.304Z,20.70
2019-02-22T02:07:30.351Z,17.20
2019-02-22T02:10:00.410Z,18.27
2019-02-22T02:12:30.424Z,15.70
2019-02-22T02:15:00.585Z,18.17
2019-02-22T02:17:30.566Z,18.93
2019-02-22T02:20:01.080Z,15.00
2019-02-22T02:22:31.547Z,20.23
2019-02-22T02:25:01.557Z,20.20
2019-02-22T02:27:31.633Z,18.37
2019-02-22T02:30:01.638Z,17.90
2019-02-22T02:32:31.764Z,16.23
2019-02-22T02:35:01.876Z,15.97
2019-02-22T02:37:32.107Z,19.77
2019-02-22T02:40:02.095Z,20.07
2019-02-22T02:42:33.538Z,17.97
2019-02-22T02:45:04.917Z,19.80
2019-02-22T02:47:35.087Z,20.50
2019-02-22T02:50:05.090Z,17.73
2019-02-22T02:52:35.146Z,22.27
2019-02-22T02:55:17.923Z,21.43
2019-02-22T02:57:48.037Z,19.27
2019-02-22T03:00:18.039Z,20.88
2019-02-22T03:02:48.090Z,14.83
2019-02-22T03:05:18.132Z,18.77
2019-02-22T03:07:48.498Z,21.63
2019-02-22T03:10:18.634Z,21.50
2019-02-22T03:12:48.696Z,22.40
2019-02-22T03:15:19.478Z,23.33
2019-02-22T03:17:49.553Z,20.00
2019-02-22T03:20:19.633Z,18.67
2019-02-22T03:22:49.614Z,20.10
2019-02-22T03:25:19.613Z,22.00
2019-02-22T03:27:49.555Z,20.70
2019-02-22T03:30:19.656Z,19.00
2019-02-22T03:32:49.610Z,23.53
2019-02-22T03:35:19.575Z,21.43
2019-02-22T03:37:50.198Z,22.17
2019-02-22T03:40:20.412Z,23.30
2019-02-22T03:42:50.401Z,21.87
2019-02-22T03:45:20.500Z,23.33
2019-02-22T03:47:50.576Z,18.10
2019-02-22T03:50:20.597Z,19.33
2019-02-22T03:52:53.753Z,22.33
2019-02-22T03:55:23.883Z,19.77
2019-02-22T03:57:53.870Z,22.33
2019-02-22T04:00:23.943Z,16.23
2019-02-22T04:02:53.984Z,16.70
2019-02-22T04:05:24.042Z,21.00
2019-02-22T04:07:54.014Z,20.93
2019-02-22T04:10:23.989Z,21.90
2019-02-22T04:12:53.980Z,22.03
2019-02-22T04:15:24.042Z,20.40
2019-02-22T04:17:54.138Z,22.17
2019-02-22T04:20:24.287Z,19.47
2019-02-22T04:22:54.406Z,20.47
2019-02-22T04:25:24.387Z,22.03
2019-02-22T04:27:54.372Z,16.13
2019-02-22T04:30:24.357Z,21.23
2019-02-22T04:32:54.694Z,21.73
2019-02-22T04:35:24.770Z,22.63
2019-02-22T04:37:54.781Z,21.73
2019-02-22T04:40:25.829Z,19.57
2019-02-22T04:42:55.908Z,19.27
2019-02-22T04:45:25.924Z,23.23
2019-02-22T04:47:56.002Z,22.27
2019-02-22T04:50:26.170Z,18.10
2019-02-22T04:52:56.138Z,19.07
2019-02-22T04:55:26.204Z,18.00
2019-02-22T04:57:56.308Z,22.23
2019-02-22T05:00:26.483Z,19.13
2019-02-22T05:02:56.667Z,19.10
2019-02-22T05:05:26.653Z,21.80
2019-02-22T05:07:56.620Z,22.33
2019-02-22T05:10:26.642Z,22.50
2019-02-22T05:12:56.628Z,22.87
2019-02-22T05:15:26.869Z,23.03
2019-02-22T05:17:57.088Z,19.83
2019-02-22T05:20:27.186Z,20.53
2019-02-22T05:23:03.876Z,20.77
2019-02-22T05:25:28.892Z,20.10
2019-02-22T05:27:58.903Z,21.37
2019-02-22T05:30:28.924Z,21.30
2019-02-22T05:32:58.915Z,19.27
2019-02-22T05:35:28.996Z,20.70
2019-02-22T05:37:58.995Z,21.83
2019-02-22T05:40:28.997Z,19.83
2019-02-22T05:42:59.016Z,21.37
2019-02-22T05:45:29.127Z,18.83
2019-02-22T05:47:59.118Z,17.20
2019-02-22T05:50:29.069Z,17.87
2019-02-22T05:52:59.056Z,23.80
2019-02-22T05:55:29.060Z,17.80
2019-02-22T05:57:59.151Z,23.00
2019-02-22T06:00:29.129Z,23.53
2019-02-22T06:02:59.198Z,22.63
2019-02-22T06:05:29.258Z,19.50
2019-02-22T06:07:59.249Z,21.87
2019-02-22T06:10:29.318Z,22.10
2019-02-22T06:12:59.372Z,17.23
2019-02-22T06:15:31.383Z,16.47
2019-02-22T06:18:01.435Z,18.07
2019-02-22T06:20:31.428Z,18.63
2019-02-22T06:23:01.393Z,14.80
2019-02-22T06:25:31.382Z,22.13
2019-02-22T06:28:01.409Z,22.93
2019-02-22T06:30:31.989Z,22.43
2019-02-22T06:33:02.159Z,17.93
2019-02-22T06:35:32.169Z,21.33
2019-02-22T06:38:02.302Z,18.10
2019-02-22T06:40:32.532Z,22.30
2019-02-22T06:43:02.514Z,15.63
2019-02-22T06:45:32.541Z,14.57
2019-02-22T06:48:02.569Z,14.70
2019-02-22T06:50:34.086Z,15.10
2019-02-22T06:53:04.333Z,18.40
2019-02-22T06:55:34.336Z,15.27
2019-02-22T06:58:04.454Z,16.93
2019-02-22T07:00:34.430Z,19.13
2019-02-22T07:03:04.571Z,18.63
2019-02-22T07:05:34.644Z,14.90
2019-02-22T07:08:04.780Z,18.30
2019-02-22T07:10:52.628Z,17.30
2019-02-22T07:13:24.424Z,17.83
2019-02-22T07:15:54.278Z,22.67
2019-02-22T07:18:24.252Z,17.73
2019-02-22T07:20:54.240Z,20.17
2019-02-22T07:23:24.276Z,14.13
2019-02-22T07:25:54.254Z,19.97
2019-02-22T07:28:24.218Z,18.00
2019-02-22T07:30:54.197Z,22.57
2019-02-22T07:33:24.278Z,17.03
2019-02-22T07:35:54.345Z,15.50
2019-02-22T07:38:24.320Z,19.73
2019-02-22T07:40:54.304Z,20.97
2019-02-22T07:43:24.478Z,21.83
2019-02-22T07:45:54.499Z,20.13
2019-02-22T07:48:24.723Z,17.87
2019-02-22T07:50:58.192Z,21.67
2019-02-22T07:53:26.543Z,20.77
2019-02-22T07:55:56.506Z,18.00
2019-02-22T07:58:26.504Z,16.07
2019-02-22T08:00:57.110Z,18.90
2019-02-22T08:03:27.188Z,18.90
2019-02-22T08:05:57.187Z,19.53
2019-02-22T08:08:27.197Z,20.20
2019-02-22T08:10:57.164Z,13.90
2019-02-22T08:13:27.190Z,18.63
2019-02-22T08:15:57.371Z,14.43
2019-02-22T08:18:27.411Z,17.57
2019-02-22T08:20:57.584Z,13.93
2019-02-22T08:23:27.601Z,17.77
2019-02-22T08:25:57.564Z,21.50
2019-02-22T08:28:27.598Z,14.23
2019-02-22T08:30:57.911Z,19.90
2019-02-22T08:33:34.605Z,20.33
2019-02-22T08:36:25.470Z,20.17
2019-02-22T08:38:58.198Z,19.57
2019-02-22T08:41:29.765Z,19.33
2019-02-22T08:44:00.042Z,20.90
2019-02-22T08:53:16.441Z,14.77
2019-02-22T08:55:46.440Z,17.93
2019-02-22T08:58:16.826Z,15.13
2019-02-22T09:01:04.964Z,13.80
2019-02-22T09:03:35.352Z,14.97
2019-02-22T09:06:05.528Z,14.20
2019-02-22T09:14:34.363Z,15.33
2019-02-22T09:17:06.283Z,15.60
2019-02-22T09:19:38.321Z,15.13
2019-02-22T09:22:09.077Z,15.97
2019-02-22T09:24:39.100Z,15.30
2019-02-22T09:27:17.306Z,16.60
2019-02-22T09:29:58.557Z,15.43
2019-02-22T09:32:26.414Z,15.47
2019-02-22T09:34:56.466Z,15.43
2019-02-22T09:37:30.573Z,15.57
2019-02-22T09:40:01.044Z,15.97
2019-02-22T09:42:34.492Z,17.70
2019-02-22T09:45:06.428Z,16.63
2019-02-22T09:47:36.759Z,16.63
2019-02-22T09:50:11.306Z,15.03
2019-02-22T09:52:45.694Z,16.57
2019-02-22T10:01:10.768Z,14.60
2019-02-22T10:03:40.877Z,16.10
2019-02-22T10:06:11.092Z,15.50
2019-02-22T10:08:41.206Z,17.63
2019-02-22T10:13:37.269Z,15.73
2019-02-22T10:16:07.305Z,16.80
2019-02-22T10:18:37.527Z,14.50
2019-02-22T10:21:07.577Z,16.17
2019-02-22T10:23:37.623Z,12.93
2019-02-22T10:26:07.589Z,13.13
2019-02-22T10:28:37.708Z,13.93
2019-02-22T10:31:07.886Z,13.83
2019-02-22T10:33:38.002Z,14.63
2019-02-22T10:36:10.594Z,15.87
2019-02-22T10:38:40.680Z,13.87
2019-02-22T10:41:11.315Z,13.00
2019-02-22T10:43:41.323Z,15.33
2019-02-22T10:46:14.380Z,15.67
2019-02-22T10:48:44.611Z,15.30
2019-02-22T10:51:14.931Z,15.43
2019-02-22T10:53:45.054Z,14.03
2019-02-22T10:56:15.158Z,12.70
2019-02-22T10:58:47.022Z,14.77
2019-02-22T11:01:17.078Z,15.53
2019-02-22T11:03:47.074Z,14.43
2019-02-22T11:06:17.028Z,14.97
2019-02-22T11:08:47.338Z,12.47
2019-02-22T11:11:18.804Z,13.70
2019-02-22T11:13:48.775Z,12.80
2019-02-22T11:16:18.809Z,11.80
2019-02-22T11:18:56.778Z,12.70
2019-02-22T11:21:26.993Z,12.23
2019-02-22T11:23:58.740Z,14.07
2019-02-22T11:26:29.409Z,13.47
2019-02-22T11:29:00.011Z,12.83
2019-02-22T11:31:29.960Z,11.57
2019-02-22T11:34:00.134Z,13.22
2019-02-22T11:36:30.196Z,12.83
2019-02-22T11:39:00.255Z,11.87
2019-02-22T11:41:30.339Z,12.57
2019-02-22T11:44:07.263Z,11.57
2019-02-22T11:46:39.478Z,11.80
2019-02-22T11:49:09.490Z,11.13
2019-02-22T11:51:43.711Z,13.90
2019-02-22T12:16:31.530Z,10.73
2019-02-22T12:28:06.124Z,9.83
2019-02-22T12:30:36.433Z,10.23
2019-02-22T12:33:06.738Z,10.43
2019-02-22T12:47:52.726Z,10.27
2019-02-22T12:56:10.310Z,10.77
2019-02-22T12:58:50.964Z,9.70
2019-02-22T13:01:21.182Z,10.30
2019-02-22T13:03:51.612Z,10.97
2019-02-22T13:06:21.602Z,10.53
2019-02-22T13:08:53.361Z,10.77
2019-02-22T13:11:23.429Z,9.63
2019-02-22T13:13:53.390Z,9.67
2019-02-22T13:16:23.451Z,10.47
2019-02-22T13:18:53.465Z,10.20
2019-02-22T13:21:23.480Z,9.70
2019-02-22T13:23:54.380Z,9.17
2019-02-22T13:26:24.517Z,9.80
2019-02-22T13:28:54.658Z,9.50
2019-02-22T13:37:10.581Z,8.43
2019-02-22T13:39:40.582Z,8.27
2019-02-22T13:42:10.553Z,8.23
2019-02-22T13:44:40.615Z,8.07
2019-02-22T13:47:10.652Z,8.40
2019-02-22T13:49:40.669Z,9.03
2019-02-22T13:52:10.636Z,9.77
2019-02-22T13:54:40.653Z,10.00
2019-02-22T13:57:10.812Z,8.37
2019-02-22T13:59:40.810Z,10.37
2019-02-22T14:02:10.806Z,8.77
2019-02-22T14:04:40.787Z,11.13
2019-02-22T14:07:10.792Z,10.43
2019-02-22T14:09:40.905Z,10.37
2019-02-22T14:12:11.877Z,11.53
2019-02-22T14:14:41.883Z,12.03
2019-02-22T14:17:11.830Z,11.33
2019-02-22T14:19:42.314Z,12.73
2019-02-22T14:22:12.410Z,12.43
2019-02-22T14:24:42.431Z,12.50
2019-02-22T14:27:12.440Z,11.37
2019-02-22T14:29:42.492Z,12.43
2019-02-22T14:32:12.516Z,11.53
2019-02-22T14:34:42.985Z,13.07
2019-02-22T14:37:13.085Z,13.20
2019-02-22T14:39:44.029Z,12.27
2019-02-22T14:42:13.990Z,11.67
2019-02-22T14:44:44.046Z,13.20
2019-02-22T14:47:14.061Z,12.57
2019-02-22T14:49:44.054Z,12.90
2019-02-22T14:52:14.090Z,13.07
2019-02-22T14:54:44.228Z,13.30
2019-02-22T14:57:14.250Z,12.70
2019-02-22T14:59:44.224Z,12.53
2019-02-22T15:02:14.205Z,14.13
2019-02-22T15:04:44.298Z,12.93
2019-02-22T15:07:14.323Z,12.53
2019-02-22T15:09:44.484Z,11.97
2019-02-22T15:12:14.542Z,12.77
2019-02-22T15:14:44.559Z,11.67
2019-02-22T15:17:30.405Z,13.60
2019-02-22T15:20:00.492Z,11.97
2019-02-22T15:22:30.545Z,11.77
2019-02-22T15:25:00.542Z,12.23
2019-02-22T15:27:30.602Z,11.53
2019-02-22T15:30:00.626Z,12.00
2019-02-22T15:32:30.688Z,12.60
2019-02-22T15:35:00.686Z,12.20
2019-02-22T15:37:30.766Z,11.53
2019-02-22T15:40:00.845Z,11.27
2019-02-22T15:42:32.151Z,12.00
2019-02-22T15:45:02.252Z,11.57
2019-02-22T15:47:33.797Z,10.23
2019-02-22T15:50:04.991Z,11.00
2019-02-22T15:52:35.821Z,11.87
2019-02-22T15:55:06.489Z,10.33
2019-02-22T15:57:36.584Z,10.83
2019-02-22T16:00:08.145Z,10.63
2019-02-22T16:02:38.241Z,11.13
2019-02-22T16:05:15.450Z,10.43
2019-02-22T16:07:45.530Z,11.30
2019-02-22T16:10:15.635Z,11.03
2019-02-22T16:12:46.020Z,11.63
2019-02-22T16:15:16.252Z,10.50
2019-02-22T16:17:46.302Z,9.57
2019-02-22T16:20:16.379Z,10.53
2019-02-22T16:22:46.358Z,10.47
2019-02-22T16:25:19.447Z,10.13
2019-02-22T16:27:48.087Z,8.90
2019-02-22T16:30:19.576Z,10.03
2019-02-22T16:32:49.640Z,10.23
2019-02-22T16:35:19.597Z,9.13
2019-02-22T16:37:49.556Z,9.50
2019-02-22T16:40:21.714Z,9.60
2019-02-22T16:42:51.693Z,9.70
2019-02-22T16:45:21.659Z,9.30
2019-02-22T16:47:52.065Z,9.23
2019-02-22T16:50:22.287Z,9.03
2019-02-22T16:52:52.374Z,9.93
2019-02-22T16:55:22.482Z,9.23
2019-02-22T16:57:52.492Z,9.20
2019-02-22T17:00:22.512Z,9.73
2019-02-22T17:02:52.659Z,8.53
2019-02-22T17:05:22.732Z,8.93
2019-02-22T17:07:52.980Z,8.77
2019-02-22T17:10:23.995Z,8.87
2019-02-22T17:12:54.685Z,9.30
2019-02-22T17:15:25.360Z,8.00
2019-02-22T17:17:57.378Z,7.93
2019-02-22T17:20:27.332Z,8.13
2019-02-22T17:22:57.291Z,9.47
2019-02-22T17:25:27.771Z,8.33
2019-02-22T17:27:57.766Z,8.33
2019-02-22T17:30:27.817Z,8.73
2019-02-22T17:32:57.844Z,8.17
2019-02-22T17:35:28.260Z,8.90
2019-02-22T17:37:58.336Z,8.20
2019-02-22T17:40:28.385Z,7.90
2019-02-22T17:42:58.343Z,7.60
2019-02-22T17:45:28.420Z,7.87
2019-02-22T17:48:00.909Z,7.50
2019-02-22T17:50:30.987Z,7.93
2019-02-22T17:53:01.379Z,9.50
2019-02-22T17:55:31.386Z,8.97
2019-02-22T17:58:01.341Z,8.43
2019-02-22T18:00:31.513Z,11.77
2019-02-22T18:03:01.560Z,8.80
2019-02-22T18:05:31.569Z,9.57
2019-02-22T18:10:38.210Z,8.70
2019-02-22T18:13:08.364Z,9.07
2019-02-22T18:15:38.402Z,9.87
2019-02-22T18:18:08.470Z,10.93
2019-02-22T18:20:38.527Z,9.40
2019-02-22T18:23:08.597Z,11.03
2019-02-22T18:25:38.612Z,8.67
2019-02-22T18:28:09.377Z,11.40
2019-02-22T18:33:21.353Z,10.00
2019-02-22T18:35:52.562Z,12.30
2019-02-22T18:38:22.593Z,11.90
2019-02-22T18:40:53.673Z,11.37
2019-02-22T18:43:23.839Z,9.93
2019-02-22T18:45:53.908Z,11.37
2019-02-22T18:48:24.347Z,9.40
2019-02-22T18:50:54.393Z,9.37
2019-02-22T18:53:24.725Z,11.43
2019-02-22T18:55:54.755Z,10.77
2019-02-22T18:58:24.832Z,11.67
2019-02-22T19:00:54.839Z,11.53
2019-02-22T19:03:25.966Z,10.90
2019-02-22T19:05:56.000Z,11.00
2019-02-22T19:08:32.355Z,11.50
2019-02-22T19:10:59.856Z,12.20
2019-02-22T19:13:29.967Z,10.73
2019-02-22T19:16:00.011Z,10.77
2019-02-22T19:18:30.055Z,9.33
2019-02-22T19:21:00.165Z,11.43
2019-02-22T19:23:30.286Z,10.00
2019-02-22T19:26:00.287Z,10.43
2019-02-22T19:28:31.147Z,10.00
2019-02-22T19:31:02.113Z,10.87
2019-02-22T19:33:32.477Z,11.67
2019-02-22T19:36:02.506Z,10.83
2019-02-22T19:38:32.588Z,9.40
2019-02-22T19:41:02.702Z,9.00
2019-02-22T19:43:32.669Z,11.07
2019-02-22T19:46:02.766Z,10.63
2019-02-22T19:48:32.785Z,9.93
2019-02-22T19:51:02.920Z,10.17
2019-02-22T19:53:33.261Z,9.50
2019-02-22T19:56:04.051Z,8.47
2019-02-22T19:58:34.196Z,9.03
2019-02-22T20:01:04.474Z,8.97
2019-02-22T20:03:34.521Z,8.10
2019-02-22T20:06:04.707Z,8.47
2019-02-22T20:08:34.868Z,8.00
2019-02-22T20:11:04.927Z,7.50
2019-02-22T20:13:35.130Z,7.43
2019-02-22T20:16:05.539Z,7.57
2019-02-22T20:18:35.682Z,7.73
2019-02-22T20:21:06.020Z,7.10
2019-02-22T20:23:36.079Z,7.17
2019-02-22T20:26:06.032Z,8.47
2019-02-22T20:28:36.085Z,7.70
2019-02-22T20:31:06.145Z,8.73
2019-02-22T20:33:36.156Z,7.40
2019-02-22T20:36:06.355Z,6.37
2019-02-22T20:38:36.474Z,7.37
2019-02-22T20:41:06.498Z,7.30
2019-02-22T20:43:36.556Z,6.73
2019-02-22T20:46:06.603Z,6.80
2019-02-22T20:48:36.592Z,7.40
2019-02-22T20:51:06.781Z,7.93
2019-02-22T20:53:37.883Z,7.27
2019-02-22T20:56:07.854Z,7.33
2019-02-22T20:58:37.833Z,6.80
2019-02-22T21:01:14.723Z,7.00
2019-02-22T21:03:39.581Z,6.97
2019-02-22T21:06:09.547Z,6.70
2019-02-22T21:08:39.549Z,7.60
2019-02-22T21:11:09.554Z,6.77
2019-02-22T21:13:39.561Z,7.07
2019-02-22T21:16:09.578Z,7.97
2019-02-22T21:18:39.614Z,7.87
2019-02-22T21:21:09.640Z,7.27
2019-02-22T21:23:39.592Z,8.67
2019-02-22T21:26:09.644Z,7.40
2019-02-22T21:28:39.903Z,7.20
2019-02-22T21:31:10.391Z,7.90
2019-02-22T21:33:40.773Z,8.37
2019-02-22T21:36:11.160Z,7.17
2019-02-22T21:38:41.178Z,7.20
2019-02-22T21:41:11.250Z,7.87
2019-02-22T21:43:41.311Z,8.33
2019-02-22T21:46:11.514Z,8.47
2019-02-22T21:48:41.519Z,7.90
2019-02-22T21:51:11.805Z,6.97
2019-02-22T21:53:42.187Z,8.13
2019-02-22T21:56:12.669Z,7.60
2019-02-22T21:58:43.237Z,8.03
2019-02-22T22:01:13.629Z,7.93
2019-02-22T22:03:44.288Z,7.57
2019-02-22T22:06:14.300Z,6.87
2019-02-22T22:08:44.539Z,7.40
2019-02-22T22:11:14.538Z,8.33
2019-02-22T22:13:44.794Z,6.83
2019-02-22T22:16:14.774Z,7.73
2019-02-22T22:18:44.743Z,7.67
2019-02-22T22:21:14.701Z,6.87
2019-02-22T22:23:44.757Z,8.37
2019-02-22T22:26:14.822Z,7.33
2019-02-22T22:28:44.882Z,8.27
2019-02-22T22:31:14.936Z,7.37
2019-02-22T22:33:45.907Z,8.00
2019-02-22T22:36:15.899Z,7.55
2019-02-22T22:38:46.073Z,7.80
2019-02-22T22:41:16.133Z,7.58
2019-02-22T22:43:46.119Z,7.57
2019-02-22T22:46:16.224Z,6.60
2019-02-22T22:48:50.465Z,7.70
2019-02-22T22:51:18.019Z,7.80
2019-02-22T22:53:48.064Z,6.90
2019-02-22T22:56:18.061Z,7.53
2019-02-22T22:58:48.051Z,7.50
2019-02-22T23:01:23.593Z,7.12
2019-02-22T23:03:53.821Z,8.70
2019-02-22T23:06:23.923Z,7.73
2019-02-22T23:08:53.993Z,8.20
2019-02-22T23:11:24.077Z,8.47
2019-02-22T23:13:54.277Z,8.70
2019-02-22T23:16:24.325Z,8.37
2019-02-22T23:19:01.956Z,8.00
2019-02-22T23:21:30.148Z,9.87
2019-02-22T23:23:59.862Z,10.83
2019-02-22T23:26:30.071Z,9.53
2019-02-22T23:29:01.823Z,9.73
2019-02-22T23:31:31.795Z,12.27
2019-02-22T23:34:01.909Z,9.90
2019-02-22T23:36:32.935Z,10.97
2019-02-22T23:39:04.474Z,11.60
2019-02-22T23:41:36.219Z,10.83
2019-02-22T23:44:06.182Z,14.57
2019-02-22T23:46:36.162Z,12.33
2019-02-22T23:49:13.134Z,12.43
2019-02-22T23:51:37.847Z,13.93
2019-02-22T23:54:08.097Z,11.90
2019-02-22T23:56:39.033Z,11.87
2019-02-22T23:59:09.033Z,12.43
